weather.gov     
National Weather Service

Terminal Aerodrome Forecast
NWS Homepage
This page is being discontinued on March 12, 2014.
The same data is available at this site. Please update your bookmarks.
Thank you, and we apologize for the inconvenience.
Please send an email to SR-SRH.Webmaster@noaa.gov with any concerns.


Current Version
Previous Version:    01  02  03  04  05  06  07  08  09  10  11  12  13  14  15  16  17  18  19  20  21  22  23  24  25  26  27  28  29  30  
   31  32  33  34  35  
[Printable]
299
FTUS46 KOTX 231729
TAFGEG
TAF
KGEG 231729Z 2318/2418 22018KT P6SM BKN025 BKN080
     FM232000 23019G25KT P6SM SCT030 BKN040
      TEMPO 2321/2401 -SHRA BKN030 BKN040
     FM240400 16010KT P6SM -RA BKN025 OVC050
     FM241100 15008KT P6SM -RA BKN015 OVC040=


299
FTUS46 KOTX 231729
TAFGEG
TAF
KGEG 231729Z 2318/2418 22018KT P6SM BKN025 BKN080
     FM232000 23019G25KT P6SM SCT030 BKN040
      TEMPO 2321/2401 -SHRA BKN030 BKN040
     FM240400 16010KT P6SM -RA BKN025 OVC050
     FM241100 15008KT P6SM -RA BKN015 OVC040=




U.S. Dept. of Commerce
NOAA National Weather Service
1325 East West Highway
Silver Spring, MD 20910
E-mail: w-nws.webmaster@noaa.gov
Page last modified: May 16, 2007
NATIONAL WEATHER SERVICE: for Safety, for Work, for Fun - FOR LIFE